Time;durP1;ratioP1;P1;durP2;ratioP2;P2;SDS_P1;SDS_P2;PMS_P1;PMS_P2;Temp;Humidity;BMP_temperature;BMP_pressure;BME280_temperature;BME280_humidity;BME280_pressure;Samples;Min_cycle;Max_cycle;Signal;HPM_P1;HPM_P2
2024/04/25 00:00:46;;;;;;;;;;;;;;;19.96;43.43;99880.09;2221085;26;5900;-66
2024/04/25 00:01:48;;;;;;;;;;;;;;;19.96;42.99;99877.94;2222492;26;2132;-66
2024/04/25 00:02:51;;;;;;;;;;;;;;;19.97;43.46;99885.16;2221855;26;2094;-66
2024/04/25 00:03:53;;;;;;;;;;;;;;;19.98;43.03;99888.78;2221898;26;2290;-66
2024/04/25 00:04:54;;;;;;;;;;;;;;;19.97;43.39;99888.03;2222652;26;2404;-66
2024/04/25 00:05:56;;;;;;;;;;;;;;;19.98;43.35;99880.88;2221486;26;2007;-66
2024/04/25 00:06:57;;;;;;;;;;;;;;;19.99;43.13;99890.97;2228716;26;2194;-66
2024/04/25 00:08:03;;;;;;;;;;;;;;;19.99;43.05;99885.22;2221789;26;2325;-66
2024/04/25 00:09:05;;;;;;;;;;;;;;;20.00;43.46;99883.84;2222545;26;2011;-66
2024/04/25 00:10:07;;;;;;;;;;;;;;;19.99;43.15;99885.22;2221539;26;2193;-66
2024/04/25 00:11:08;;;;;;;;;;;;;;;19.99;43.19;99890.97;2219933;26;2134;-66
2024/04/25 00:12:10;;;;;;;;;;;;;;;20.01;43.18;99887.44;2221177;26;2114;-66
2024/04/25 00:13:11;;;;;;;;;;;;;;;20.00;42.89;99886.69;2220687;26;1985;-66
2024/04/25 00:14:13;;;;;;;;;;;;;;;20.01;42.76;99887.44;2232590;26;2095;-66
2024/04/25 00:15:14;;;;;;;;;;;;;;;20.00;43.35;99880.97;2222249;26;2048;-66
2024/04/25 00:16:16;;;;;;;;;;;;;;;20.01;43.20;99884.56;2217306;26;2044;-66
2024/04/25 00:17:17;;;;;;;;;;;;;;;20.00;43.15;99883.09;2221441;26;2132;-66
2024/04/25 00:18:19;;;;;;;;;;;;;;;19.99;43.05;99890.97;2221873;26;1929;-66
2024/04/25 00:19:20;;;;;;;;;;;;;;;20.00;43.26;99886.69;2222579;26;2089;-66
2024/04/25 00:20:23;;;;;;;;;;;;;;;20.00;43.17;99883.84;2221229;26;2067;-66
2024/04/25 00:21:24;;;;;;;;;;;;;;;20.00;43.46;99886.69;2220374;26;2191;-66
2024/04/25 00:22:26;;;;;;;;;;;;;;;19.99;43.29;99882.34;2225089;26;2143;-66
2024/04/25 00:23:28;;;;;;;;;;;;;;;20.00;43.25;99880.22;2222328;26;2107;-66
2024/04/25 00:24:30;;;;;;;;;;;;;;;19.99;43.35;99884.50;2222215;26;2101;-66
2024/04/25 00:25:31;;;;;;;;;;;;;;;19.99;43.16;99878.75;2222814;26;2128;-66
2024/04/25 00:26:33;;;;;;;;;;;;;;;19.98;43.59;99878.00;2223973;26;2025;-66
2024/04/25 00:27:34;;;;;;;;;;;;;;;19.99;43.54;99879.47;2226065;26;2118;-66
2024/04/25 00:28:36;;;;;;;;;;;;;;;19.99;43.15;99873.00;2223396;26;2123;-66
2024/04/25 00:29:38;;;;;;;;;;;;;;;19.99;43.10;99879.47;2233180;26;2065;-66
2024/04/25 00:30:39;;;;;;;;;;;;;;;19.98;43.30;99880.16;2223494;26;5942;-66
2024/04/25 00:31:41;;;;;;;;;;;;;;;19.98;43.72;99872.28;2230543;26;2120;-66
2024/04/25 00:32:42;;;;;;;;;;;;;;;19.97;43.33;99876.53;2221529;26;2123;-66
2024/04/25 00:33:44;;;;;;;;;;;;;;;19.95;43.21;99873.63;2222023;26;2139;-66
2024/04/25 00:34:45;;;;;;;;;;;;;;;19.97;43.10;99876.53;2216629;26;2160;-66
2024/04/25 00:35:47;;;;;;;;;;;;;;;19.98;43.68;99883.75;2222251;26;2222;-66
2024/04/25 00:36:48;;;;;;;;;;;;;;;19.96;43.47;99872.19;2220892;26;2148;-66
2024/04/25 00:37:50;;;;;;;;;;;;;;;19.97;43.28;99870.78;2221867;26;2075;-66
2024/04/25 00:38:51;;;;;;;;;;;;;;;19.96;43.62;99869.31;2226771;26;1992;-66
2024/04/25 00:39:55;;;;;;;;;;;;;;;19.96;43.60;99869.31;2222919;26;2286;-67
2024/04/25 00:40:56;;;;;;;;;;;;;;;19.95;43.59;99873.63;2215996;26;2087;-67
2024/04/25 00:41:57;;;;;;;;;;;;;;;19.95;43.20;99862.13;2222053;26;2172;-66
2024/04/25 00:43:00;;;;;;;;;;;;;;;19.95;43.28;99870.00;2221346;26;2130;-66
2024/04/25 00:44:02;;;;;;;;;;;;;;;19.95;43.07;99873.63;2221799;26;2036;-65
2024/04/25 00:45:04;;;;;;;;;;;;;;;19.94;43.14;99869.25;2222264;26;2134;-66
2024/04/25 00:46:05;;;;;;;;;;;;;;;19.93;43.15;99873.53;2221206;26;2148;-67
2024/04/25 00:47:07;;;;;;;;;;;;;;;19.94;43.25;99860.63;2221364;26;1948;-66
2024/04/25 00:48:09;;;;;;;;;;;;;;;19.93;43.03;99867.81;2222065;26;2243;-66
2024/04/25 00:49:11;;;;;;;;;;;;;;;19.94;43.17;99863.50;2220360;26;2056;-66
2024/04/25 00:50:12;;;;;;;;;;;;;;;19.93;43.45;99859.19;2221903;26;1840;-66
2024/04/25 00:51:15;;;;;;;;;;;;;;;19.93;42.99;99864.94;2221645;26;2058;-66
2024/04/25 00:52:18;;;;;;;;;;;;;;;19.93;43.16;99853.44;2221079;26;2068;-66
2024/04/25 00:53:20;;;;;;;;;;;;;;;19.93;43.51;99858.44;2228721;26;2410;-66
2024/04/25 00:54:21;;;;;;;;;;;;;;;19.93;43.78;99864.16;2221571;26;2064;-66
2024/04/25 00:55:23;;;;;;;;;;;;;;;19.92;43.30;99860.56;2221227;26;2048;-66
2024/04/25 00:56:25;;;;;;;;;;;;;;;19.91;43.36;99861.25;2220390;26;2086;-66
2024/04/25 00:57:27;;;;;;;;;;;;;;;19.92;43.11;99862.72;2223937;26;2280;-66
2024/04/25 00:58:30;;;;;;;;;;;;;;;19.91;43.05;99867.72;2214614;26;2648;-66
2024/04/25 00:59:33;;;;;;;;;;;;;;;19.91;43.51;99859.13;2222465;26;2244;-69
2024/04/25 01:00:35;;;;;;;;;;;;;;;19.92;43.58;99856.97;2219972;26;5927;-66
2024/04/25 01:01:40;;;;;;;;;;;;;;;19.91;43.51;99861.25;2222692;26;2148;-66
2024/04/25 01:02:42;;;;;;;;;;;;;;;19.91;43.42;99864.84;2223234;26;2034;-66
2024/04/25 01:03:43;;;;;;;;;;;;;;;19.90;42.92;99857.63;2227125;26;2251;-66
2024/04/25 01:04:45;;;;;;;;;;;;;;;19.90;43.29;99854.75;2222156;26;2259;-65
2024/04/25 01:05:47;;;;;;;;;;;;;;;19.90;43.46;99854.75;2216024;26;2446;-67
2024/04/25 01:06:50;;;;;;;;;;;;;;;19.91;43.39;99855.50;2215638;26;2175;-66
2024/04/25 01:07:51;;;;;;;;;;;;;;;19.89;43.57;99847.56;2222052;26;2103;-66
2024/04/25 01:08:53;;;;;;;;;;;;;;;19.89;43.04;99856.16;2221401;26;2309;-66
2024/04/25 01:09:57;;;;;;;;;;;;;;;19.89;43.50;99853.28;2221076;26;2086;-66
2024/04/25 01:10:59;;;;;;;;;;;;;;;19.89;43.58;99861.91;2221443;26;2337;-66
2024/04/25 01:12:01;;;;;;;;;;;;;;;19.88;43.56;99857.56;2221731;26;1992;-66
2024/04/25 01:13:03;;;;;;;;;;;;;;;19.87;43.53;99856.09;2221068;26;2401;-66
2024/04/25 01:14:05;;;;;;;;;;;;;;;19.88;43.09;99857.56;2221719;26;2118;-66
2024/04/25 01:15:06;;;;;;;;;;;;;;;19.88;42.99;99846.06;2229807;26;2192;-66
2024/04/25 01:16:09;;;;;;;;;;;;;;;19.87;43.58;99850.34;2220823;26;2187;-66
2024/04/25 01:17:11;;;;;;;;;;;;;;;19.88;43.39;99857.56;2218502;26;2012;-66
2024/04/25 01:18:13;;;;;;;;;;;;;;;19.87;43.41;99850.34;2221707;26;2215;-66
2024/04/25 01:19:17;;;;;;;;;;;;;;;19.87;42.95;99853.22;2222194;26;2156;-66
2024/04/25 01:20:18;;;;;;;;;;;;;;;19.87;42.99;99850.34;2221237;26;2192;-66
2024/04/25 01:21:20;;;;;;;;;;;;;;;19.86;43.06;99855.38;2221608;26;2103;-66
2024/04/25 01:22:22;;;;;;;;;;;;;;;19.87;43.21;99844.63;2222552;26;2091;-66
2024/04/25 01:23:26;;;;;;;;;;;;;;;19.87;43.15;99844.63;2227084;26;2403;-66
2024/04/25 01:24:28;;;;;;;;;;;;;;;19.86;42.80;99846.75;2229060;26;2243;-66
2024/04/25 01:25:30;;;;;;;;;;;;;;;19.87;43.06;99844.63;2222813;26;2290;-66
2024/04/25 01:26:31;;;;;;;;;;;;;;;19.87;43.15;99845.34;2220819;26;2187;-66
2024/04/25 01:27:33;;;;;;;;;;;;;;;19.86;43.31;99848.91;2214464;26;2297;-66
2024/04/25 01:28:36;;;;;;;;;;;;;;;19.86;42.80;99846.75;2220465;26;2329;-66
2024/04/25 01:29:38;;;;;;;;;;;;;;;19.86;43.15;99846.03;2213481;26;2333;-67
2024/04/25 01:30:40;;;;;;;;;;;;;;;19.86;43.06;99848.91;2228796;26;5925;-66
2024/04/25 01:31:42;;;;;;;;;;;;;;;19.85;43.27;99856.03;2238049;26;2233;-66
2024/04/25 01:32:44;;;;;;;;;;;;;;;19.85;43.45;99848.16;2239100;26;2228;-66
2024/04/25 01:33:46;;;;;;;;;;;;;;;19.85;43.29;99848.16;2238178;26;2181;-66
2024/04/25 01:34:48;;;;;;;;;;;;;;;19.86;43.19;99854.66;2236457;26;2177;-66
2024/04/25 01:35:49;;;;;;;;;;;;;;;19.86;43.17;99848.91;2236848;26;2222;-67
2024/04/25 01:36:51;;;;;;;;;;;;;;;19.84;42.95;99843.81;2239489;26;2359;-66
2024/04/25 01:37:53;;;;;;;;;;;;;;;19.85;42.91;99847.41;2238433;26;2186;-66
2024/04/25 01:38:54;;;;;;;;;;;;;;;19.85;43.06;99853.16;2240001;26;2175;-66
2024/04/25 01:39:56;;;;;;;;;;;;;;;19.84;43.18;99845.97;2238170;26;2154;-66
2024/04/25 01:40:57;;;;;;;;;;;;;;;19.84;42.68;99848.84;2237818;26;2130;-66
2024/04/25 01:41:58;;;;;;;;;;;;;;;19.84;43.24;99846.69;2235947;26;2126;-66
2024/04/25 01:43:00;;;;;;;;;;;;;;;19.84;43.12;99845.97;2236721;26;2140;-66
2024/04/25 01:44:01;;;;;;;;;;;;;;;19.84;42.71;99845.97;2236684;26;2228;-66
2024/04/25 01:45:03;;;;;;;;;;;;;;;19.83;42.83;99841.59;2237418;26;2043;-66
2024/04/25 01:46:06;;;;;;;;;;;;;;;19.83;42.66;99835.84;2231225;26;2065;-66
2024/04/25 01:47:08;;;;;;;;;;;;;;;19.84;42.79;99840.22;2237264;26;2071;-66
2024/04/25 01:48:09;;;;;;;;;;;;;;;19.83;43.23;99838.72;2237172;26;1958;-66
2024/04/25 01:49:11;;;;;;;;;;;;;;;19.83;43.10;99835.84;2235759;26;2253;-66
2024/04/25 01:50:12;;;;;;;;;;;;;;;19.83;43.20;99838.72;2237666;26;1983;-66
2024/04/25 01:51:15;;;;;;;;;;;;;;;19.83;42.92;99841.59;2237186;26;2347;-66
2024/04/25 01:52:16;;;;;;;;;;;;;;;19.82;42.84;99832.25;2236083;26;2057;-66
2024/04/25 01:53:18;;;;;;;;;;;;;;;19.82;42.64;99834.41;2237672;26;2032;-66
2024/04/25 01:54:19;;;;;;;;;;;;;;;19.81;43.19;99836.53;2237761;26;2033;-66
2024/04/25 01:55:24;;;;;;;;;;;;;;;19.81;42.86;99835.78;2237570;26;2022;-66
2024/04/25 01:56:29;;;;;;;;;;;;;;;19.81;42.61;99838.66;2236123;26;2205;-66
2024/04/25 01:57:32;;;;;;;;;;;;;;;19.81;42.76;99842.28;2241113;26;2252;-66
2024/04/25 01:58:33;;;;;;;;;;;;;;;19.80;43.14;99835.06;2236587;26;2046;-66
2024/04/25 01:59:34;;;;;;;;;;;;;;;19.80;42.83;99840.06;2238067;26;2253;-66
2024/04/25 02:00:36;;;;;;;;;;;;;;;19.80;42.69;99834.34;2235763;26;6119;-66
2024/04/25 02:01:38;;;;;;;;;;;;;;;19.80;42.96;99837.19;2237410;26;2114;-66
2024/04/25 02:02:39;;;;;;;;;;;;;;;19.79;42.64;99839.34;2235835;26;2037;-66
2024/04/25 02:03:42;;;;;;;;;;;;;;;19.79;42.94;99832.84;2237698;26;2165;-67
2024/04/25 02:04:44;;;;;;;;;;;;;;;19.79;42.87;99835.72;2238083;26;2034;-66
2024/04/25 02:05:45;;;;;;;;;;;;;;;19.78;43.00;99840.00;2242313;26;2034;-66
2024/04/25 02:06:47;;;;;;;;;;;;;;;19.79;43.04;99835.72;2237667;26;2145;-66
2024/04/25 02:07:49;;;;;;;;;;;;;;;19.79;43.10;99835.72;2236683;26;2113;-66
2024/04/25 02:08:51;;;;;;;;;;;;;;;19.78;42.95;99837.88;2238084;26;2098;-66
2024/04/25 02:09:52;;;;;;;;;;;;;;;19.78;43.30;99832.13;2237447;26;2102;-66
2024/04/25 02:10:54;;;;;;;;;;;;;;;19.77;43.02;99839.28;2237153;26;2505;-66
2024/04/25 02:11:55;;;;;;;;;;;;;;;19.77;43.19;99835.66;2236996;26;2298;-66
2024/04/25 02:12:57;;;;;;;;;;;;;;;19.78;42.86;99834.25;2237668;26;2116;-66
2024/04/25 02:13:58;;;;;;;;;;;;;;;19.77;43.06;99841.41;2241029;26;2213;-66
2024/04/25 02:15:00;;;;;;;;;;;;;;;19.77;42.81;99835.66;2237022;26;2110;-66
2024/04/25 02:16:01;;;;;;;;;;;;;;;19.77;43.14;99841.41;2235484;26;2037;-66
2024/04/25 02:17:03;;;;;;;;;;;;;;;19.77;42.76;99841.41;2236806;26;1986;-66
2024/04/25 02:18:04;;;;;;;;;;;;;;;19.77;42.97;99838.53;2237365;26;2129;-66
2024/04/25 02:19:06;;;;;;;;;;;;;;;19.77;43.06;99835.66;2236011;26;2022;-66
2024/04/25 02:25:32;;;;;;;;;;;;;;;19.79;43.50;99838.59;2235059;26;2037;-66
2024/04/25 02:26:34;;;;;;;;;;;;;;;19.81;43.00;99835.78;2235919;26;2433;-66
2024/04/25 02:27:35;;;;;;;;;;;;;;;19.80;43.19;99835.06;2240786;26;2063;-67
2024/04/25 02:28:37;;;;;;;;;;;;;;;19.81;43.00;99842.28;2236714;26;2120;-66
2024/04/25 02:29:38;;;;;;;;;;;;;;;19.81;43.53;99838.66;2236818;26;2054;-66
2024/04/25 02:30:40;;;;;;;;;;;;;;;19.82;43.00;99831.53;2236727;26;5989;-66
2024/04/25 02:31:41;;;;;;;;;;;;;;;19.83;43.30;99838.72;2235370;26;2213;-66
2024/04/25 02:32:43;;;;;;;;;;;;;;;19.83;43.18;99842.34;2237311;26;2122;-66
2024/04/25 02:33:44;;;;;;;;;;;;;;;19.83;43.16;99830.13;2235702;26;2095;-66
2024/04/25 02:34:46;;;;;;;;;;;;;;;19.84;43.09;99840.22;2243744;26;2068;-66
2024/04/25 02:35:47;;;;;;;;;;;;;;;19.85;43.13;99830.19;2237466;26;2219;-66
2024/04/25 02:36:49;;;;;;;;;;;;;;;19.86;42.94;99823.03;2237364;26;2029;-66
2024/04/25 02:37:50;;;;;;;;;;;;;;;19.85;43.45;99830.19;2236437;26;2126;-66
2024/04/25 02:38:52;;;;;;;;;;;;;;;19.85;42.96;99830.91;2236782;26;2356;-66
2024/04/25 02:39:53;;;;;;;;;;;;;;;19.86;43.26;99828.78;2237540;26;2115;-66
2024/04/25 02:40:55;;;;;;;;;;;;;;;19.86;42.92;99826.66;2237647;26;2094;-66
2024/04/25 02:41:56;;;;;;;;;;;;;;;19.86;42.98;99823.03;2236852;26;2168;-66
2024/04/25 02:42:58;;;;;;;;;;;;;;;19.87;42.83;99827.38;2236412;26;2026;-66
2024/04/25 02:43:59;;;;;;;;;;;;;;;19.86;43.41;99825.91;2237156;26;2447;-66
2024/04/25 02:45:00;;;;;;;;;;;;;;;19.86;43.17;99829.53;2230907;26;2220;-66
2024/04/25 02:46:02;;;;;;;;;;;;;;;19.87;42.96;99833.13;2236881;26;2245;-66
2024/04/25 02:47:03;;;;;;;;;;;;;;;19.88;42.91;99825.97;2236757;26;2049;-66
2024/04/25 02:48:05;;;;;;;;;;;;;;;19.90;43.37;99822.44;2235456;26;2595;-66
2024/04/25 02:49:07;;;;;;;;;;;;;;;19.91;43.02;99832.53;2231866;26;2232;-66
2024/04/25 02:50:10;;;;;;;;;;;;;;;19.89;43.37;99818.81;2235070;26;2299;-67
2024/04/25 02:51:12;;;;;;;;;;;;;;;19.88;43.26;99818.09;2238753;26;2308;-66
2024/04/25 02:52:13;;;;;;;;;;;;;;;19.91;42.89;99821.03;2235712;26;2123;-66
2024/04/25 02:53:15;;;;;;;;;;;;;;;19.90;43.24;99819.56;2252142;26;1913;-66
2024/04/25 02:54:16;;;;;;;;;;;;;;;19.92;42.87;99817.47;2250544;26;2104;-66
2024/04/25 02:55:18;;;;;;;;;;;;;;;19.93;42.89;99812.44;2244788;26;2123;-66
2024/04/25 02:56:19;;;;;;;;;;;;;;;19.93;42.86;99813.22;2235718;26;2036;-66
2024/04/25 02:57:22;;;;;;;;;;;;;;;19.93;43.01;99810.34;2236835;26;1990;-66
2024/04/25 02:58:23;;;;;;;;;;;;;;;19.92;43.53;99817.47;2236875;26;2220;-66
2024/04/25 02:59:25;;;;;;;;;;;;;;;19.92;43.11;99817.47;2236995;26;2123;-66
2024/04/25 03:00:26;;;;;;;;;;;;;;;19.92;43.26;99811.00;2235607;26;6020;-66
2024/04/25 03:01:28;;;;;;;;;;;;;;;19.92;42.89;99811.72;2241634;26;2067;-66
2024/04/25 03:02:29;;;;;;;;;;;;;;;19.93;43.00;99812.44;2233077;26;2310;-66
2024/04/25 03:03:31;;;;;;;;;;;;;;;19.91;43.25;99818.88;2240184;26;2048;-66
2024/04/25 03:04:32;;;;;;;;;;;;;;;19.92;43.49;99817.47;2230359;26;2164;-66
2024/04/25 03:05:39;;;;;;;;;;;;;;;19.93;43.45;99821.06;2234385;26;2215;-66
2024/04/25 03:06:41;;;;;;;;;;;;;;;19.91;42.88;99816.03;2233742;26;2220;-66
2024/04/25 03:07:42;;;;;;;;;;;;;;;19.92;43.24;99814.59;2235901;26;2113;-66
2024/04/25 03:08:44;;;;;;;;;;;;;;;19.93;43.02;99816.09;2236220;26;2187;-66
2024/04/25 03:09:45;;;;;;;;;;;;;;;19.93;43.31;99816.09;2232836;26;2193;-66
2024/04/25 03:10:47;;;;;;;;;;;;;;;19.92;43.45;99808.84;2233794;26;2300;-66
2024/04/25 03:11:49;;;;;;;;;;;;;;;19.91;43.57;99812.41;2237813;26;2097;-66
2024/04/25 03:12:50;;;;;;;;;;;;;;;19.94;43.04;99811.06;2237182;26;2055;-66
2024/04/25 03:13:52;;;;;;;;;;;;;;;19.93;43.25;99818.97;2237035;26;2307;-66
2024/04/25 03:14:53;;;;;;;;;;;;;;;19.92;43.56;99805.97;2235904;26;2124;-67
2024/04/25 03:15:55;;;;;;;;;;;;;;;19.91;43.42;99803.78;2237301;26;2109;-67
2024/04/25 03:17:00;;;;;;;;;;;;;;;19.95;42.79;99807.53;2236692;26;2236;-66
2024/04/25 03:18:01;;;;;;;;;;;;;;;19.94;43.46;99803.19;2236216;26;2135;-66
2024/04/25 03:19:03;;;;;;;;;;;;;;;19.94;43.23;99802.44;2237625;26;2194;-66
2024/04/25 03:20:05;;;;;;;;;;;;;;;19.96;43.15;99805.38;2235324;26;2217;-66
2024/04/25 03:21:07;;;;;;;;;;;;;;;19.95;42.82;99804.66;2232358;26;2408;-66
2024/04/25 03:22:09;;;;;;;;;;;;;;;19.94;43.45;99803.19;2238652;26;2189;-66
2024/04/25 03:23:10;;;;;;;;;;;;;;;19.96;42.80;99811.88;2237149;26;2291;-66
2024/04/25 03:24:12;;;;;;;;;;;;;;;19.97;43.22;99812.59;2236626;26;2226;-66
2024/04/25 03:25:13;;;;;;;;;;;;;;;19.95;43.01;99809.66;2237113;26;2083;-66
2024/04/25 03:26:15;;;;;;;;;;;;;;;19.97;43.30;99812.59;2237612;26;2011;-66
2024/04/25 03:27:16;;;;;;;;;;;;;;;19.97;43.16;99819.06;2241119;26;2211;-66
2024/04/25 03:28:18;;;;;;;;;;;;;;;19.97;43.35;99810.44;2237163;26;2143;-66
2024/04/25 03:29:19;;;;;;;;;;;;;;;19.97;43.41;99819.06;2232921;26;2205;-66
2024/04/25 03:30:21;;;;;;;;;;;;;;;19.96;42.86;99817.59;2241331;26;6125;-66
2024/04/25 03:31:22;;;;;;;;;;;;;;;19.97;42.82;99818.34;2237503;26;2174;-66
2024/04/25 03:32:24;;;;;;;;;;;;;;;19.96;43.33;99825.50;2236771;26;2366;-66
2024/04/25 03:33:26;;;;;;;;;;;;;;;19.96;43.07;99817.59;2236037;26;2095;-66
2024/04/25 03:34:27;;;;;;;;;;;;;;;19.97;43.14;99821.94;2236854;26;2132;-67
2024/04/25 03:35:29;;;;;;;;;;;;;;;19.97;43.15;99824.81;2237022;26;2152;-66
2024/04/25 03:36:30;;;;;;;;;;;;;;;19.98;42.94;99822.69;2236532;26;2010;-66
2024/04/25 03:37:32;;;;;;;;;;;;;;;19.96;43.09;99817.59;2245883;26;2194;-66
2024/04/25 03:38:33;;;;;;;;;;;;;;;19.98;43.24;99819.81;2237060;26;2143;-66
2024/04/25 03:39:35;;;;;;;;;;;;;;;19.96;43.48;99816.88;2235495;26;2221;-66
2024/04/25 03:40:39;;;;;;;;;;;;;;;19.99;43.54;99815.53;2237596;26;2131;-66
2024/04/25 03:41:41;;;;;;;;;;;;;;;19.99;42.96;99819.13;2235653;26;2316;-66
2024/04/25 03:42:43;;;;;;;;;;;;;;;19.97;42.96;99815.47;2237105;26;2277;-66
2024/04/25 03:43:45;;;;;;;;;;;;;;;19.99;42.83;99821.28;2240733;26;2295;-66
2024/04/25 03:44:47;;;;;;;;;;;;;;;19.97;43.47;99819.06;2238852;26;2331;-66
2024/04/25 03:45:48;;;;;;;;;;;;;;;20.00;43.14;99817.75;2232953;26;2347;-67
2024/04/25 03:46:50;;;;;;;;;;;;;;;20.00;43.38;99814.88;2236212;26;2177;-66
2024/04/25 03:47:51;;;;;;;;;;;;;;;20.00;43.14;99823.50;2237361;26;2201;-66
2024/04/25 03:48:53;;;;;;;;;;;;;;;20.01;43.08;99822.06;2237299;26;2123;-66
2024/04/25 03:49:55;;;;;;;;;;;;;;;20.01;42.92;99822.06;2240698;26;2201;-66
2024/04/25 03:50:57;;;;;;;;;;;;;;;19.99;43.10;99819.13;2238825;26;2103;-66
2024/04/25 03:51:59;;;;;;;;;;;;;;;20.02;42.94;99823.56;2239357;26;2319;-66
2024/04/25 03:53:00;;;;;;;;;;;;;;;20.02;43.13;99822.81;2236709;26;2146;-66
2024/04/25 03:54:02;;;;;;;;;;;;;;;20.01;43.00;99818.47;2236359;26;1997;-67
2024/04/25 03:55:04;;;;;;;;;;;;;;;20.02;43.12;99819.94;2232570;26;2318;-66
2024/04/25 03:56:05;;;;;;;;;;;;;;;20.01;42.92;99818.47;2232058;26;2227;-67
2024/04/25 03:57:07;;;;;;;;;;;;;;;20.01;43.12;99822.06;2236255;26;2076;-66
2024/04/25 03:58:08;;;;;;;;;;;;;;;20.00;43.14;99825.63;2237038;26;2104;-66
2024/04/25 03:59:10;;;;;;;;;;;;;;;20.01;43.01;99818.47;2236179;26;2165;-66
2024/04/25 04:00:11;;;;;;;;;;;;;;;20.01;42.94;99824.94;2236121;26;6002;-66
2024/04/25 04:01:13;;;;;;;;;;;;;;;20.01;43.21;99827.81;2237097;26;2197;-66
2024/04/25 04:02:15;;;;;;;;;;;;;;;20.01;43.34;99830.69;2236544;26;2128;-66
2024/04/25 04:03:16;;;;;;;;;;;;;;;20.02;42.89;99825.66;2240259;26;2216;-67
2024/04/25 04:04:18;;;;;;;;;;;;;;;20.02;43.13;99831.41;2231919;26;2111;-66
2024/04/25 04:05:20;;;;;;;;;;;;;;;20.01;42.77;99829.97;2236718;26;2172;-66
2024/04/25 04:06:22;;;;;;;;;;;;;;;20.00;43.42;99826.34;2236821;26;2168;-66
2024/04/25 04:07:23;;;;;;;;;;;;;;;20.02;43.50;99826.44;2234439;26;1997;-66
2024/04/25 04:08:25;;;;;;;;;;;;;;;20.03;42.75;99833.63;2236980;26;2236;-66
2024/04/25 04:09:26;;;;;;;;;;;;;;;20.02;42.93;99829.31;2235893;26;2313;-66
2024/04/25 04:10:27;;;;;;;;;;;;;;;20.02;43.33;99832.19;2236385;26;2039;-67
2024/04/25 04:11:29;;;;;;;;;;;;;;;20.02;43.18;99832.19;2236611;26;2004;-66
2024/04/25 04:12:31;;;;;;;;;;;;;;;20.04;42.83;99834.34;2236719;26;2207;-66
2024/04/25 04:13:35;;;;;;;;;;;;;;;20.03;43.14;99830.75;2237219;26;2156;-66
2024/04/25 04:14:37;;;;;;;;;;;;;;;20.01;42.99;99827.81;2229516;26;2154;-66
2024/04/25 04:15:38;;;;;;;;;;;;;;;20.02;43.21;99826.44;2236680;26;2168;-66
2024/04/25 04:16:40;;;;;;;;;;;;;;;20.04;43.46;99835.13;2236175;26;2125;-66
2024/04/25 04:17:41;;;;;;;;;;;;;;;20.04;43.13;99829.38;2235991;26;2112;-66
2024/04/25 04:18:43;;;;;;;;;;;;;;;20.05;43.48;99830.81;2236715;26;2035;-66
2024/04/25 04:19:44;;;;;;;;;;;;;;;20.05;43.11;99830.81;2236847;26;2100;-66
2024/04/25 04:20:48;;;;;;;;;;;;;;;20.04;42.84;99829.38;2233114;26;2210;-66
2024/04/25 04:21:50;;;;;;;;;;;;;;;20.04;43.26;99835.13;2246659;26;2175;-66
2024/04/25 04:22:51;;;;;;;;;;;;;;;20.01;43.00;99827.81;2232559;26;2315;-66
2024/04/25 04:23:53;;;;;;;;;;;;;;;20.02;43.28;99835.03;2236523;26;2276;-66
2024/04/25 04:24:55;;;;;;;;;;;;;;;20.04;43.45;99835.13;2237554;26;2291;-66
2024/04/25 04:25:56;;;;;;;;;;;;;;;20.05;42.78;99830.81;2236841;26;2076;-66
2024/04/25 04:26:58;;;;;;;;;;;;;;;20.05;42.97;99830.81;2232593;26;2108;-66
2024/04/25 04:27:59;;;;;;;;;;;;;;;20.04;42.90;99832.25;2235635;26;2014;-66
2024/04/25 04:29:01;;;;;;;;;;;;;;;20.05;43.38;99835.84;2236807;26;2295;-66
2024/04/25 04:30:03;;;;;;;;;;;;;;;20.05;43.02;99830.81;2237681;26;6124;-65
2024/04/25 04:31:04;;;;;;;;;;;;;;;20.05;43.29;99833.69;2241217;26;2085;-66
2024/04/25 04:32:06;;;;;;;;;;;;;;;20.06;43.09;99828.69;2235098;26;2384;-66
2024/04/25 04:33:07;;;;;;;;;;;;;;;20.05;43.18;99827.94;2236291;26;2108;-66
2024/04/25 04:34:09;;;;;;;;;;;;;;;20.06;43.20;99826.53;2237182;26;1957;-66
2024/04/25 04:35:10;;;;;;;;;;;;;;;20.07;42.99;99833.03;2233422;26;2207;-66
2024/04/25 04:36:12;;;;;;;;;;;;;;;20.06;43.15;99826.53;2235597;26;2325;-66
2024/04/25 04:37:13;;;;;;;;;;;;;;;20.07;42.95;99828.00;2239326;26;2414;-66
2024/04/25 04:38:15;;;;;;;;;;;;;;;20.07;42.86;99828.00;2236637;26;2316;-66
2024/04/25 04:39:17;;;;;;;;;;;;;;;20.06;43.15;99831.56;2236444;26;2091;-66
2024/04/25 04:40:18;;;;;;;;;;;;;;;20.05;43.34;99827.94;2242499;26;2189;-66
2024/04/25 04:41:20;;;;;;;;;;;;;;;20.06;42.84;99826.53;2238975;26;2198;-66
2024/04/25 04:42:21;;;;;;;;;;;;;;;20.08;42.88;99835.22;2231899;26;2283;-66
2024/04/25 04:43:23;;;;;;;;;;;;;;;20.08;43.37;99835.22;2235527;26;2006;-66
2024/04/25 04:44:25;;;;;;;;;;;;;;;20.07;43.48;99833.75;2244341;26;2327;-66
2024/04/25 04:45:26;;;;;;;;;;;;;;;20.07;43.48;99828.00;2237047;26;2175;-66
2024/04/25 04:46:28;;;;;;;;;;;;;;;20.08;42.92;99835.22;2235740;26;2223;-66
2024/04/25 04:47:30;;;;;;;;;;;;;;;20.08;43.11;99829.47;2236573;26;2684;-66
2024/04/25 04:48:31;;;;;;;;;;;;;;;20.08;43.07;99823.72;2234239;26;2311;-66
2024/04/25 04:49:35;;;;;;;;;;;;;;;20.06;43.23;99826.53;2235689;26;2143;-66
2024/04/25 04:50:37;;;;;;;;;;;;;;;20.08;43.39;99840.97;2234789;26;2161;-66
2024/04/25 04:51:39;;;;;;;;;;;;;;;20.09;43.17;99828.09;2236725;26;2229;-67
2024/04/25 04:52:42;;;;;;;;;;;;;;;20.08;42.94;99829.47;2231188;26;2210;-65
2024/04/25 04:53:43;;;;;;;;;;;;;;;20.07;43.52;99828.00;2235894;26;2166;-66
2024/04/25 04:54:45;;;;;;;;;;;;;;;20.06;43.56;99835.16;2235121;26;2101;-66
2024/04/25 04:55:46;;;;;;;;;;;;;;;20.06;43.44;99826.53;2250945;26;2445;-65
2024/04/25 04:56:48;;;;;;;;;;;;;;;20.05;43.20;99821.47;2245042;26;2224;-66
2024/04/25 04:57:50;;;;;;;;;;;;;;;20.06;43.29;99828.69;2238116;26;2288;-66
2024/04/25 04:58:51;;;;;;;;;;;;;;;20.09;42.76;99839.56;2237622;26;2208;-66
2024/04/25 04:59:53;;;;;;;;;;;;;;;20.08;42.94;99835.22;2238152;26;2022;-66
2024/04/25 05:00:54;;;;;;;;;;;;;;;20.08;43.46;99837.38;2240213;26;6031;-66
2024/04/25 05:01:56;;;;;;;;;;;;;;;20.09;42.87;99833.09;2237047;26;2120;-66
2024/04/25 05:02:57;;;;;;;;;;;;;;;20.10;43.57;99843.19;2238407;26;2156;-66
2024/04/25 05:03:59;;;;;;;;;;;;;;;20.08;43.40;99840.97;2236180;26;2395;-66
2024/04/25 05:05:00;;;;;;;;;;;;;;;20.09;43.14;99839.56;2238009;26;2192;-66
2024/04/25 05:06:02;;;;;;;;;;;;;;;20.10;42.87;99831.69;2238461;26;2290;-66
2024/04/25 05:07:03;;;;;;;;;;;;;;;20.11;42.89;99843.91;2238010;26;2128;-66
2024/04/25 05:08:05;;;;;;;;;;;;;;;20.09;43.25;99835.97;2237880;26;2195;-66
2024/04/25 05:09:06;;;;;;;;;;;;;;;20.11;42.89;99836.00;2237220;26;2121;-66
2024/04/25 05:10:08;;;;;;;;;;;;;;;20.11;43.01;99843.91;2237529;26;2397;-66
2024/04/25 05:11:09;;;;;;;;;;;;;;;20.11;43.58;99838.16;2237656;26;2001;-66
2024/04/25 05:12:11;;;;;;;;;;;;;;;20.12;43.04;99833.91;2247065;26;2180;-66
2024/04/25 05:13:13;;;;;;;;;;;;;;;20.13;43.28;99836.06;2251545;26;2132;-66
2024/04/25 05:14:14;;;;;;;;;;;;;;;20.12;43.50;99845.38;2237576;26;2177;-66
2024/04/25 05:15:16;;;;;;;;;;;;;;;20.11;43.49;99843.91;2236707;26;2080;-66
2024/04/25 05:16:17;;;;;;;;;;;;;;;20.13;43.35;99841.09;2234192;26;2283;-66
2024/04/25 05:17:19;;;;;;;;;;;;;;;20.12;43.15;99833.91;2230830;26;1997;-66
2024/04/25 05:18:20;;;;;;;;;;;;;;;20.11;43.30;99835.28;2237230;26;2116;-66
2024/04/25 05:19:23;;;;;;;;;;;;;;;20.11;43.11;99841.03;2238231;26;2141;-64
2024/04/25 05:20:24;;;;;;;;;;;;;;;20.12;43.25;99839.63;2234304;26;2144;-77
2024/04/25 05:21:29;;;;;;;;;;;;;;;20.13;43.18;99843.97;2242003;26;2379;-76
2024/04/25 05:22:30;;;;;;;;;;;;;;;20.12;42.92;99839.63;2232747;26;2329;-66
2024/04/25 05:23:32;;;;;;;;;;;;;;;20.09;43.07;99842.44;2236638;26;2052;-66
2024/04/25 05:24:33;;;;;;;;;;;;;;;20.12;43.34;99840.38;2238117;26;2227;-66
2024/04/25 05:25:35;;;;;;;;;;;;;;;20.12;43.14;99837.50;2237132;26;2172;-66
2024/04/25 05:26:36;;;;;;;;;;;;;;;20.10;42.95;99831.69;2238151;26;2199;-66
2024/04/25 05:27:38;;;;;;;;;;;;;;;20.11;43.38;99838.16;2240848;26;2210;-66
2024/04/25 05:28:40;;;;;;;;;;;;;;;20.12;43.42;99839.63;2245192;26;2140;-66
2024/04/25 05:29:41;;;;;;;;;;;;;;;20.14;43.40;99836.84;2237823;26;2159;-66
2024/04/25 05:30:43;;;;;;;;;;;;;;;20.13;43.21;99836.06;2237446;26;5960;-66
2024/04/25 05:31:44;;;;;;;;;;;;;;;20.14;43.51;99842.59;2231457;26;2113;-66